createdAt,value
2023-10-10T00:02:22.563Z,24.90
2023-10-10T00:04:58.136Z,24.90
2023-10-10T00:07:29.809Z,24.90
2023-10-10T00:09:58.938Z,24.90
2023-10-10T00:12:32.624Z,25.00
2023-10-10T00:18:01.672Z,25.00
2023-10-10T00:20:37.816Z,25.00
2023-10-10T00:23:07.420Z,25.00
2023-10-10T00:25:39.463Z,25.00
2023-10-10T00:28:11.315Z,25.10
2023-10-10T00:30:45.602Z,25.10
2023-10-10T00:33:18.964Z,25.10
2023-10-10T00:35:50.092Z,25.10
2023-10-10T00:38:26.938Z,25.10
2023-10-10T00:40:57.375Z,25.10
2023-10-10T00:43:26.960Z,25.10
2023-10-10T00:45:57.166Z,25.10
2023-10-10T00:48:34.274Z,25.20
2023-10-10T00:51:09.333Z,25.20
2023-10-10T00:53:41.655Z,25.30
2023-10-10T00:56:11.346Z,25.30
2023-10-10T00:58:41.446Z,25.40
2023-10-10T01:01:12.677Z,25.40
2023-10-10T01:03:44.234Z,25.50
2023-10-10T01:06:35.952Z,25.60
2023-10-10T01:09:23.739Z,25.60
2023-10-10T01:11:52.958Z,25.70
2023-10-10T01:14:27.374Z,25.80
2023-10-10T01:17:00.978Z,25.80
2023-10-10T01:19:33.693Z,25.90
2023-10-10T01:22:05.925Z,26.00
2023-10-10T01:24:35.053Z,26.10
2023-10-10T01:27:18.221Z,26.20
2023-10-10T01:29:52.847Z,26.20
2023-10-10T01:32:22.455Z,26.20
2023-10-10T01:34:51.604Z,26.30
2023-10-10T01:37:30.351Z,26.30
2023-10-10T01:40:15.892Z,26.40
2023-10-10T01:43:06.086Z,26.50
2023-10-10T01:45:40.313Z,26.60
2023-10-10T01:48:13.682Z,26.70
2023-10-10T01:50:43.248Z,26.90
2023-10-10T01:53:12.932Z,26.90
2023-10-10T01:55:42.100Z,27.00
2023-10-10T01:58:14.603Z,27.10
2023-10-10T02:00:48.860Z,27.20
2023-10-10T02:03:21.643Z,27.40
2023-10-10T02:05:58.277Z,27.50
2023-10-10T02:08:28.973Z,27.70
2023-10-10T02:10:58.555Z,27.80
2023-10-10T02:13:28.087Z,27.90
2023-10-10T02:15:57.223Z,28.00
2023-10-10T02:18:39.863Z,28.10
2023-10-10T02:21:20.875Z,28.20
2023-10-10T02:23:55.962Z,28.30
2023-10-10T02:26:37.749Z,28.50
2023-10-10T02:29:20.273Z,28.50
2023-10-10T02:31:58.996Z,28.60
2023-10-10T02:34:31.611Z,28.60
2023-10-10T02:37:30.397Z,28.70
2023-10-10T02:40:16.268Z,28.80
2023-10-10T02:43:08.615Z,28.90
2023-10-10T02:45:38.427Z,29.10
2023-10-10T02:48:10.289Z,29.30
2023-10-10T02:50:45.494Z,29.50
2023-10-10T02:53:17.194Z,29.60
2023-10-10T02:55:53.156Z,29.70
2023-10-10T02:58:25.271Z,29.90
2023-10-10T03:01:00.023Z,30.00
2023-10-10T03:03:29.435Z,30.20
2023-10-10T03:06:08.659Z,30.30
2023-10-10T03:08:43.679Z,30.40
2023-10-10T03:11:37.880Z,30.60
2023-10-10T03:14:10.229Z,30.70
2023-10-10T03:17:05.008Z,30.90
2023-10-10T03:19:41.055Z,31.00
2023-10-10T03:22:31.244Z,31.10
2023-10-10T03:25:32.212Z,31.20
2023-10-10T03:28:20.504Z,31.20
2023-10-10T03:31:25.129Z,31.30
2023-10-10T03:34:12.538Z,31.40
2023-10-10T03:36:46.685Z,31.40
2023-10-10T03:39:25.632Z,31.40
2023-10-10T03:42:15.389Z,31.60
2023-10-10T03:45:02.556Z,31.60
2023-10-10T03:47:49.904Z,31.70
2023-10-10T03:50:37.150Z,31.70
2023-10-10T03:53:25.426Z,31.70
2023-10-10T03:56:13.084Z,31.60
2023-10-10T03:59:00.596Z,31.50
2023-10-10T04:01:48.025Z,31.40
2023-10-10T04:04:34.990Z,31.40
2023-10-10T04:07:22.150Z,31.40
2023-10-10T04:10:20.353Z,31.40
2023-10-10T04:13:07.709Z,31.40
2023-10-10T04:15:55.504Z,31.50
2023-10-10T04:18:45.437Z,31.60
2023-10-10T04:21:32.906Z,31.60
2023-10-10T04:24:22.027Z,31.70
2023-10-10T04:27:09.043Z,31.70
2023-10-10T04:29:56.487Z,31.80
2023-10-10T04:32:43.711Z,31.90
2023-10-10T04:35:31.366Z,32.00
2023-10-10T04:38:18.871Z,32.00
2023-10-10T04:41:06.369Z,32.10
2023-10-10T04:43:54.810Z,32.20
2023-10-10T04:46:42.148Z,32.10
2023-10-10T04:49:29.611Z,32.20
2023-10-10T04:52:17.256Z,32.30
2023-10-10T04:55:10.569Z,32.30
2023-10-10T04:57:58.028Z,32.30
2023-10-10T05:00:53.393Z,32.30
2023-10-10T05:03:40.642Z,32.30
2023-10-10T05:06:27.836Z,32.40
2023-10-10T05:09:15.368Z,32.30
2023-10-10T05:12:02.418Z,32.30
2023-10-10T05:14:49.750Z,32.20
2023-10-10T05:17:36.970Z,32.00
2023-10-10T05:20:24.531Z,31.90
2023-10-10T05:23:12.366Z,31.90
2023-10-10T05:25:43.748Z,31.80
2023-10-10T05:28:12.902Z,31.70
2023-10-10T05:30:48.010Z,31.70
2023-10-10T05:33:21.937Z,31.80
2023-10-10T05:35:59.515Z,31.80
2023-10-10T05:38:29.179Z,31.80
2023-10-10T05:41:02.529Z,31.80
2023-10-10T05:43:36.290Z,31.70
2023-10-10T05:46:06.411Z,31.70
2023-10-10T05:48:38.492Z,31.70
2023-10-10T05:51:11.201Z,31.70
2023-10-10T05:53:43.461Z,31.70
2023-10-10T05:56:15.511Z,31.60
2023-10-10T05:58:45.414Z,31.60
2023-10-10T06:01:16.228Z,31.60
2023-10-10T06:03:49.520Z,31.60
2023-10-10T06:06:20.530Z,31.60
2023-10-10T06:08:56.031Z,31.60
2023-10-10T06:11:26.392Z,31.60
2023-10-10T06:13:56.162Z,31.50
2023-10-10T06:16:26.473Z,31.50
2023-10-10T06:18:55.727Z,31.50
2023-10-10T06:21:24.920Z,31.40
2023-10-10T06:23:54.101Z,31.30
2023-10-10T06:26:26.953Z,31.30
2023-10-10T06:28:56.241Z,31.40
2023-10-10T06:31:38.660Z,31.40
2023-10-10T06:34:22.097Z,31.30
2023-10-10T06:36:53.264Z,31.40
2023-10-10T06:39:23.624Z,31.40
2023-10-10T06:41:53.105Z,31.50
2023-10-10T06:44:38.420Z,31.60
2023-10-10T06:47:11.256Z,31.70
2023-10-10T06:50:01.021Z,31.70
2023-10-10T06:52:32.004Z,31.80
2023-10-10T06:55:07.875Z,31.80
2023-10-10T06:57:43.471Z,31.80
2023-10-10T07:00:30.858Z,31.80
2023-10-10T07:03:03.457Z,31.80
2023-10-10T07:05:36.145Z,31.90
2023-10-10T07:08:15.682Z,31.90
2023-10-10T07:10:44.851Z,31.90
2023-10-10T07:13:16.866Z,32.00
2023-10-10T07:15:53.775Z,32.00
2023-10-10T07:18:26.849Z,31.80
2023-10-10T07:21:07.057Z,31.80
2023-10-10T07:23:43.429Z,31.70
2023-10-10T07:26:23.647Z,31.70
2023-10-10T07:28:56.993Z,31.60
2023-10-10T07:31:27.275Z,31.50
2023-10-10T07:34:09.284Z,31.50
2023-10-10T07:36:41.146Z,31.60
2023-10-10T07:39:28.300Z,31.50
2023-10-10T07:41:59.616Z,31.50
2023-10-10T07:44:28.846Z,31.50
2023-10-10T07:47:30.259Z,31.50
2023-10-10T07:50:02.305Z,31.40
2023-10-10T07:52:38.159Z,31.50
2023-10-10T07:55:08.735Z,31.60
2023-10-10T07:57:55.883Z,31.60
2023-10-10T08:00:37.568Z,31.60
2023-10-10T08:03:09.808Z,31.70
2023-10-10T08:05:39.079Z,31.70
2023-10-10T08:08:16.006Z,31.70
2023-10-10T08:10:54.076Z,31.70
2023-10-10T08:13:31.135Z,31.60
2023-10-10T08:16:04.632Z,31.50
2023-10-10T08:18:47.330Z,31.40
2023-10-10T08:21:17.076Z,31.30
2023-10-10T08:23:51.031Z,31.20
2023-10-10T08:26:20.701Z,31.10
2023-10-10T08:28:53.873Z,31.00
2023-10-10T08:31:25.210Z,31.00
2023-10-10T08:33:54.752Z,31.00
2023-10-10T08:36:26.980Z,31.00
2023-10-10T08:39:00.895Z,31.00
2023-10-10T08:41:33.789Z,30.90
2023-10-10T08:44:08.534Z,30.90
2023-10-10T08:46:50.937Z,30.80
2023-10-10T08:49:20.205Z,30.70
2023-10-10T08:51:54.661Z,30.70
2023-10-10T08:54:27.474Z,30.70
2023-10-10T08:57:09.513Z,30.60
2023-10-10T08:59:46.208Z,30.60
2023-10-10T09:02:20.101Z,30.50
2023-10-10T09:04:52.994Z,30.50
2023-10-10T09:07:22.804Z,30.40
2023-10-10T09:10:07.321Z,30.30
2023-10-10T09:12:55.087Z,30.30
2023-10-10T09:15:26.053Z,30.20
2023-10-10T09:18:13.942Z,30.10
2023-10-10T09:20:47.382Z,30.10
2023-10-10T09:23:25.452Z,30.00
2023-10-10T09:26:22.528Z,30.00
2023-10-10T09:29:01.244Z,30.00
2023-10-10T09:31:33.854Z,29.90
2023-10-10T09:34:08.760Z,29.90
2023-10-10T09:36:56.071Z,29.90
2023-10-10T09:39:51.446Z,29.90
2023-10-10T09:42:39.384Z,29.90
2023-10-10T09:45:27.770Z,29.90
2023-10-10T09:48:07.739Z,29.80
2023-10-10T09:50:40.007Z,29.80
2023-10-10T09:53:21.928Z,29.80
2023-10-10T09:55:55.661Z,29.70
2023-10-10T09:58:44.118Z,29.70
2023-10-10T10:01:21.358Z,29.60
2023-10-10T10:04:02.871Z,29.70
2023-10-10T10:07:17.876Z,29.70
2023-10-10T10:10:03.738Z,29.60
2023-10-10T10:13:15.599Z,29.60
2023-10-10T10:16:22.021Z,29.60
2023-10-10T10:18:54.833Z,29.60
2023-10-10T10:21:33.713Z,29.60
2023-10-10T10:24:20.793Z,29.50
2023-10-10T10:27:15.186Z,29.50
2023-10-10T10:29:56.420Z,29.50
2023-10-10T10:32:28.600Z,29.50
2023-10-10T10:35:00.621Z,29.40
2023-10-10T10:37:33.221Z,29.40
2023-10-10T10:40:16.829Z,29.40
2023-10-10T10:42:49.828Z,29.40
2023-10-10T10:45:44.171Z,29.30
2023-10-10T10:48:38.014Z,29.30
2023-10-10T10:51:30.818Z,29.30
2023-10-10T10:54:01.039Z,29.10
2023-10-10T10:56:35.929Z,29.10
2023-10-10T10:59:22.205Z,29.00
2023-10-10T11:02:00.040Z,28.90
2023-10-10T11:04:32.737Z,28.80
2023-10-10T11:07:09.998Z,28.70
2023-10-10T11:09:55.057Z,28.70
2023-10-10T11:12:34.004Z,28.70
2023-10-10T11:15:10.329Z,28.60
2023-10-10T11:17:42.241Z,28.60
2023-10-10T11:20:41.622Z,28.60
2023-10-10T11:23:17.149Z,28.60
2023-10-10T11:26:01.092Z,28.60
2023-10-10T11:28:40.161Z,28.60
2023-10-10T11:31:09.742Z,28.50
2023-10-10T11:33:58.208Z,28.60
2023-10-10T11:36:40.116Z,28.50
2023-10-10T11:39:34.069Z,28.50
2023-10-10T11:42:06.856Z,28.50
2023-10-10T11:44:36.005Z,28.50
2023-10-10T11:47:09.603Z,28.40
2023-10-10T11:49:38.832Z,28.40
2023-10-10T11:52:20.915Z,28.40
2023-10-10T11:54:50.085Z,28.40
2023-10-10T11:57:19.246Z,28.40
2023-10-10T11:59:49.419Z,28.40
2023-10-10T12:02:31.912Z,28.40
2023-10-10T12:05:16.936Z,28.40
2023-10-10T12:07:46.096Z,28.40
2023-10-10T12:10:15.750Z,28.30
2023-10-10T12:12:47.401Z,28.30
2023-10-10T12:15:21.833Z,28.30
2023-10-10T12:17:56.095Z,28.30
2023-10-10T12:20:27.707Z,28.30
2023-10-10T12:22:56.989Z,28.20
2023-10-10T12:25:26.129Z,28.20
2023-10-10T12:28:02.760Z,28.20
2023-10-10T12:30:31.860Z,28.20
2023-10-10T12:33:01.066Z,28.20
2023-10-10T12:35:30.351Z,28.10
2023-10-10T12:38:03.575Z,28.10
2023-10-10T12:40:35.739Z,28.10
2023-10-10T12:43:05.913Z,28.10
2023-10-10T12:45:35.405Z,28.10
2023-10-10T12:48:05.490Z,28.00
2023-10-10T12:50:35.362Z,28.10
2023-10-10T12:53:10.485Z,28.00
2023-10-10T12:55:51.007Z,28.00
2023-10-10T12:58:22.754Z,28.00
2023-10-10T13:00:53.444Z,28.00
2023-10-10T13:03:30.176Z,28.00
2023-10-10T13:06:11.101Z,28.00
2023-10-10T13:08:50.547Z,27.90
2023-10-10T13:11:22.543Z,27.90
2023-10-10T13:13:54.841Z,27.90
2023-10-10T13:16:40.304Z,27.90
2023-10-10T13:19:11.764Z,27.90
2023-10-10T13:21:42.947Z,27.90
2023-10-10T13:24:17.691Z,27.90
2023-10-10T13:26:51.770Z,27.80
2023-10-10T13:29:21.327Z,27.80
2023-10-10T13:31:51.575Z,27.80
2023-10-10T13:34:20.855Z,27.80
2023-10-10T13:36:50.219Z,27.70
2023-10-10T13:39:35.735Z,27.70
2023-10-10T13:42:08.889Z,27.70
2023-10-10T13:44:38.230Z,27.70
2023-10-10T13:47:10.341Z,27.70
2023-10-10T13:49:46.990Z,27.70
2023-10-10T13:52:19.291Z,27.60
2023-10-10T13:54:48.575Z,27.60
2023-10-10T13:57:17.882Z,27.60
2023-10-10T13:59:55.640Z,27.60
2023-10-10T14:02:29.371Z,27.60
2023-10-10T14:05:03.058Z,27.60
2023-10-10T14:07:35.097Z,27.60
2023-10-10T14:10:07.698Z,27.60
2023-10-10T14:12:46.491Z,27.50
2023-10-10T14:15:17.765Z,27.60
2023-10-10T14:17:51.756Z,27.60
2023-10-10T14:20:24.150Z,27.60
2023-10-10T14:22:56.221Z,27.60
2023-10-10T14:25:27.692Z,27.60
2023-10-10T14:27:57.801Z,27.60
2023-10-10T14:30:26.905Z,27.60
2023-10-10T14:33:02.641Z,27.60
2023-10-10T14:35:33.217Z,27.60
2023-10-10T14:38:03.560Z,27.60
2023-10-10T14:40:35.353Z,27.60
2023-10-10T14:43:10.553Z,27.60
2023-10-10T14:45:45.675Z,27.50
2023-10-10T14:48:23.100Z,27.60
2023-10-10T14:50:56.035Z,27.50
2023-10-10T14:53:26.404Z,27.50
2023-10-10T14:55:55.470Z,27.50
2023-10-10T14:58:35.529Z,27.50
2023-10-10T15:01:05.304Z,27.40
2023-10-10T15:03:43.482Z,27.40
2023-10-10T15:06:18.969Z,27.40
2023-10-10T15:08:48.076Z,27.40
2023-10-10T15:11:24.443Z,27.40
2023-10-10T15:13:56.560Z,27.30
2023-10-10T15:16:33.020Z,27.30
2023-10-10T15:19:05.529Z,27.30
2023-10-10T15:21:41.001Z,27.30
2023-10-10T15:24:14.131Z,27.30
2023-10-10T15:26:53.723Z,27.30
2023-10-10T15:29:25.871Z,27.20
2023-10-10T15:31:56.823Z,27.20
2023-10-10T15:34:30.248Z,27.20
2023-10-10T15:37:17.180Z,27.10
2023-10-10T15:39:46.604Z,27.10
2023-10-10T15:42:17.136Z,27.10
2023-10-10T15:44:48.239Z,27.00
2023-10-10T15:47:17.356Z,27.00
2023-10-10T15:49:46.481Z,27.00
2023-10-10T15:52:15.981Z,26.90
2023-10-10T15:54:45.056Z,26.90
2023-10-10T15:57:14.139Z,26.90
2023-10-10T15:59:44.345Z,26.90
2023-10-10T16:02:16.020Z,26.90
2023-10-10T16:04:46.883Z,26.80
2023-10-10T16:07:19.776Z,26.80
2023-10-10T16:09:54.629Z,26.80
2023-10-10T16:12:25.334Z,26.80
2023-10-10T16:14:54.438Z,26.80
2023-10-10T16:17:23.544Z,26.80
2023-10-10T16:19:52.646Z,26.70
2023-10-10T16:22:21.720Z,26.70
2023-10-10T16:24:54.826Z,26.70
2023-10-10T16:27:26.004Z,26.70
2023-10-10T16:29:58.224Z,26.70
2023-10-10T16:32:27.499Z,26.60
2023-10-10T16:34:56.664Z,26.60
2023-10-10T16:37:29.234Z,26.60
2023-10-10T16:40:00.644Z,26.60
2023-10-10T16:42:29.708Z,26.60
2023-10-10T16:45:01.176Z,26.50
2023-10-10T16:47:30.729Z,26.50
2023-10-10T16:50:04.071Z,26.50
2023-10-10T16:52:33.352Z,26.50
2023-10-10T16:55:02.619Z,26.40
2023-10-10T16:57:31.696Z,26.40
2023-10-10T17:00:01.911Z,26.30
2023-10-10T17:02:32.762Z,26.30
2023-10-10T17:05:06.965Z,26.30
2023-10-10T17:07:36.421Z,26.30
2023-10-10T17:10:08.731Z,26.30
2023-10-10T17:12:41.656Z,26.20
2023-10-10T17:15:21.149Z,26.20
2023-10-10T17:17:51.134Z,26.30
2023-10-10T17:20:20.230Z,26.20
2023-10-10T17:22:51.402Z,26.20
2023-10-10T17:25:20.828Z,26.20
2023-10-10T17:27:54.303Z,26.20
2023-10-10T17:30:28.640Z,26.20
2023-10-10T17:32:59.838Z,26.10
2023-10-10T17:35:31.633Z,26.10
2023-10-10T17:38:02.125Z,26.10
2023-10-10T17:40:31.237Z,26.10
2023-10-10T17:43:01.013Z,26.10
2023-10-10T17:45:30.176Z,26.10
2023-10-10T17:48:00.530Z,26.00
2023-10-10T17:50:33.179Z,26.00
2023-10-10T17:53:04.185Z,26.00
2023-10-10T17:55:37.433Z,26.00
2023-10-10T17:58:27.822Z,26.00
2023-10-10T18:00:57.942Z,26.00
2023-10-10T18:03:27.944Z,25.90
2023-10-10T18:05:58.673Z,25.90
2023-10-10T18:08:29.539Z,25.90
2023-10-10T18:11:05.995Z,25.90
2023-10-10T18:13:37.325Z,25.90
2023-10-10T18:16:11.825Z,25.90
2023-10-10T18:18:45.917Z,25.90
2023-10-10T18:21:15.454Z,25.90
2023-10-10T18:23:45.104Z,25.90
2023-10-10T18:26:22.563Z,25.90
2023-10-10T18:28:54.173Z,25.90
2023-10-10T18:31:31.896Z,25.90
2023-10-10T18:34:01.999Z,25.90
2023-10-10T18:36:36.465Z,25.90
2023-10-10T18:39:14.722Z,25.90
2023-10-10T18:41:44.681Z,25.90
2023-10-10T18:44:17.840Z,25.90
2023-10-10T18:46:47.351Z,25.90
2023-10-10T18:49:17.249Z,25.90
2023-10-10T18:51:46.672Z,25.80
2023-10-10T18:54:16.139Z,25.90
2023-10-10T18:56:45.188Z,25.80
2023-10-10T18:59:15.404Z,25.80
2023-10-10T19:01:46.618Z,25.80
2023-10-10T19:04:17.009Z,25.80
2023-10-10T19:06:46.339Z,25.80
2023-10-10T19:09:34.389Z,25.70
2023-10-10T19:12:04.788Z,25.80
2023-10-10T19:14:36.882Z,25.70
2023-10-10T19:17:06.966Z,25.70
2023-10-10T19:19:36.202Z,25.70
2023-10-10T19:22:06.911Z,25.70
2023-10-10T19:24:37.263Z,25.70
2023-10-10T19:27:12.820Z,25.60
2023-10-10T19:29:43.859Z,25.70
2023-10-10T19:32:16.430Z,25.70
2023-10-10T19:34:45.524Z,25.60
2023-10-10T19:37:14.652Z,25.60
2023-10-10T19:39:44.806Z,25.60
2023-10-10T19:42:14.035Z,25.60
2023-10-10T19:44:43.112Z,25.60
2023-10-10T19:47:12.761Z,25.60
2023-10-10T19:49:42.126Z,25.60
2023-10-10T19:52:13.521Z,25.60
2023-10-10T19:54:42.649Z,25.60
2023-10-10T19:57:15.181Z,25.50
2023-10-10T19:59:44.441Z,25.50
2023-10-10T20:02:17.212Z,25.50
2023-10-10T20:04:46.828Z,25.50
2023-10-10T20:07:16.279Z,25.50
2023-10-10T20:09:46.122Z,25.50
2023-10-10T20:12:17.365Z,25.50
2023-10-10T20:14:46.450Z,25.50
2023-10-10T20:17:16.757Z,25.50
2023-10-10T20:19:45.803Z,25.50
2023-10-10T20:22:14.880Z,25.50
2023-10-10T20:24:44.057Z,25.50
2023-10-10T20:27:15.960Z,25.50
2023-10-10T20:29:46.698Z,25.50
2023-10-10T20:32:17.591Z,25.40
2023-10-10T20:34:46.706Z,25.40
2023-10-10T20:37:15.804Z,25.40
2023-10-10T20:39:45.308Z,25.40
2023-10-10T20:42:14.323Z,25.40
2023-10-10T20:44:45.410Z,25.40
2023-10-10T20:47:14.856Z,25.40
2023-10-10T20:49:45.230Z,25.40
2023-10-10T20:52:14.498Z,25.30
2023-10-10T20:54:43.669Z,25.40
2023-10-10T20:57:12.750Z,25.30
2023-10-10T20:59:44.859Z,25.30
2023-10-10T21:02:13.970Z,25.30
2023-10-10T21:04:45.436Z,25.30
2023-10-10T21:07:14.730Z,25.30
2023-10-10T21:09:43.816Z,25.30
2023-10-10T21:12:14.602Z,25.30
2023-10-10T21:14:43.762Z,25.30
2023-10-10T21:17:14.792Z,25.30
2023-10-10T21:19:44.125Z,25.30
2023-10-10T21:22:13.704Z,25.30
2023-10-10T21:24:43.197Z,25.30
2023-10-10T21:27:13.511Z,25.30
2023-10-10T21:29:42.697Z,25.30
2023-10-10T21:32:14.351Z,25.20
2023-10-10T21:34:45.239Z,25.20
2023-10-10T21:37:15.763Z,25.20
2023-10-10T21:39:45.116Z,25.20
2023-10-10T21:42:17.034Z,25.20
2023-10-10T21:44:46.223Z,25.20
2023-10-10T21:47:16.831Z,25.20
2023-10-10T21:49:45.938Z,25.20
2023-10-10T21:52:20.205Z,25.20
2023-10-10T21:54:51.446Z,25.20
2023-10-10T21:57:23.368Z,25.10
2023-10-10T21:59:52.549Z,25.10
2023-10-10T22:02:21.681Z,25.10
2023-10-10T22:04:53.602Z,25.20
2023-10-10T22:07:29.797Z,25.10
2023-10-10T22:09:59.324Z,25.10
2023-10-10T22:12:29.063Z,25.20
2023-10-10T22:14:58.430Z,25.10
2023-10-10T22:17:30.788Z,25.10
2023-10-10T22:20:00.425Z,25.10
2023-10-10T22:22:29.505Z,25.10
2023-10-10T22:25:00.865Z,25.10
2023-10-10T22:27:30.792Z,25.10
2023-10-10T22:30:01.683Z,25.10
2023-10-10T22:32:30.932Z,25.10
2023-10-10T22:35:01.493Z,25.10
2023-10-10T22:37:31.063Z,25.10
2023-10-10T22:40:00.703Z,25.10
2023-10-10T22:42:34.122Z,25.10
2023-10-10T22:45:03.170Z,25.00
2023-10-10T22:47:32.211Z,25.00
2023-10-10T22:50:03.145Z,25.00
2023-10-10T22:52:46.494Z,25.00
2023-10-10T22:55:16.813Z,25.00
2023-10-10T22:57:46.244Z,25.00
2023-10-10T23:00:16.406Z,24.90
2023-10-10T23:02:51.090Z,24.90
2023-10-10T23:05:20.155Z,24.90
2023-10-10T23:07:49.192Z,24.90
2023-10-10T23:10:22.829Z,24.90
2023-10-10T23:12:52.895Z,24.90
2023-10-10T23:15:32.676Z,24.90
2023-10-10T23:18:03.054Z,24.90
2023-10-10T23:20:35.617Z,24.90
2023-10-10T23:23:08.623Z,24.90
2023-10-10T23:25:37.878Z,24.90
2023-10-10T23:28:07.205Z,24.90
2023-10-10T23:30:36.352Z,24.90
2023-10-10T23:33:05.846Z,24.90
2023-10-10T23:35:35.906Z,24.90
2023-10-10T23:38:07.454Z,24.90
2023-10-10T23:40:43.382Z,24.90
2023-10-10T23:43:20.804Z,24.90
2023-10-10T23:45:56.547Z,25.00
2023-10-10T23:48:32.291Z,25.00
2023-10-10T23:51:08.944Z,25.00
2023-10-10T23:53:39.115Z,25.00
2023-10-10T23:56:10.155Z,25.10
2023-10-10T23:58:39.094Z,25.10
